Loganville, Georgia
Current Conditions -  °F | °C
As of 5:45 PM on Thursday 23 Oct 2014 (Local Time) from KLZU Reporting Station
Clear Clear  
Wind Chill: 66°   Ceiling: Unl
Heat Index: 66°   Visibility: 10mi
Dew Point: 39°   Wind: 7mph
Humidity: 37%   Direction: 280°W
Pressure: 30.02"   Gusts: NA
Location:  33.84°N, 83.9°W
Report Text: KLZU 232145Z 28006KT 10SM CLR 19/04 A3002 RMK ATIS P; RWY 25 JW
Loading
Personal Weather Stations






























Interactive Weather Map
Tropical Storm Tracking
New forecast layout! Learn more

10-Day Weather Forecast

Advertisements
Track Severe Weather on mobile